sensor_id;sensor_type;location;lat;lon;timestamp;P1;durP1;ratioP1;P2;durP2;ratioP2
23676;SDS011;31493;49.058;12.190;2022-10-22T00:00:58;22.20;;;16.00;;
23676;SDS011;31493;49.058;12.190;2022-10-22T00:03:25;22.27;;;15.73;;
23676;SDS011;31493;49.058;12.190;2022-10-22T00:05:52;22.17;;;15.40;;
23676;SDS011;31493;49.058;12.190;2022-10-22T00:08:19;25.10;;;16.77;;
23676;SDS011;31493;49.058;12.190;2022-10-22T00:10:47;25.52;;;16.77;;
23676;SDS011;31493;49.058;12.190;2022-10-22T00:13:14;21.08;;;15.88;;
23676;SDS011;31493;49.058;12.190;2022-10-22T00:15:41;25.30;;;16.77;;
23676;SDS011;31493;49.058;12.190;2022-10-22T00:18:08;22.67;;;16.45;;
23676;SDS011;31493;49.058;12.190;2022-10-22T00:20:35;22.63;;;15.50;;
23676;SDS011;31493;49.058;12.190;2022-10-22T00:23:02;26.85;;;16.50;;
23676;SDS011;31493;49.058;12.190;2022-10-22T00:25:30;21.80;;;16.88;;
23676;SDS011;31493;49.058;12.190;2022-10-22T00:28:00;22.90;;;16.55;;
23676;SDS011;31493;49.058;12.190;2022-10-22T00:30:28;25.52;;;15.68;;
23676;SDS011;31493;49.058;12.190;2022-10-22T00:32:55;21.17;;;14.10;;
23676;SDS011;31493;49.058;12.190;2022-10-22T00:35:22;18.35;;;13.60;;
23676;SDS011;31493;49.058;12.190;2022-10-22T00:37:49;20.98;;;14.05;;
23676;SDS011;31493;49.058;12.190;2022-10-22T00:40:16;25.52;;;16.15;;
23676;SDS011;31493;49.058;12.190;2022-10-22T00:42:43;22.45;;;15.07;;
23676;SDS011;31493;49.058;12.190;2022-10-22T00:45:15;25.95;;;14.48;;
23676;SDS011;31493;49.058;12.190;2022-10-22T00:47:45;29.98;;;14.80;;
23676;SDS011;31493;49.058;12.190;2022-10-22T00:50:16;19.60;;;14.70;;
23676;SDS011;31493;49.058;12.190;2022-10-22T00:52:45;24.67;;;15.43;;
23676;SDS011;31493;49.058;12.190;2022-10-22T00:55:13;25.80;;;15.73;;
23676;SDS011;31493;49.058;12.190;2022-10-22T00:57:41;24.10;;;16.20;;
23676;SDS011;31493;49.058;12.190;2022-10-22T01:00:09;25.83;;;16.55;;
23676;SDS011;31493;49.058;12.190;2022-10-22T01:02:38;25.20;;;16.23;;
23676;SDS011;31493;49.058;12.190;2022-10-22T01:05:06;32.33;;;17.13;;
23676;SDS011;31493;49.058;12.190;2022-10-22T01:07:33;29.60;;;17.45;;
23676;SDS011;31493;49.058;12.190;2022-10-22T01:10:05;26.00;;;17.88;;
23676;SDS011;31493;49.058;12.190;2022-10-22T01:12:42;23.45;;;17.00;;
23676;SDS011;31493;49.058;12.190;2022-10-22T01:15:17;25.80;;;17.30;;
23676;SDS011;31493;49.058;12.190;2022-10-22T01:17:54;29.10;;;17.70;;
23676;SDS011;31493;49.058;12.190;2022-10-22T01:20:31;30.90;;;17.77;;
23676;SDS011;31493;49.058;12.190;2022-10-22T01:23:19;29.35;;;17.58;;
23676;SDS011;31493;49.058;12.190;2022-10-22T01:26:03;26.30;;;17.35;;
23676;SDS011;31493;49.058;12.190;2022-10-22T01:28:50;27.38;;;19.10;;
23676;SDS011;31493;49.058;12.190;2022-10-22T01:31:24;23.00;;;16.63;;
23676;SDS011;31493;49.058;12.190;2022-10-22T01:33:55;26.15;;;16.45;;
23676;SDS011;31493;49.058;12.190;2022-10-22T01:36:24;23.67;;;16.35;;
23676;SDS011;31493;49.058;12.190;2022-10-22T01:38:54;28.88;;;18.98;;
23676;SDS011;31493;49.058;12.190;2022-10-22T01:41:22;27.52;;;18.35;;
23676;SDS011;31493;49.058;12.190;2022-10-22T01:43:51;25.23;;;17.38;;
23676;SDS011;31493;49.058;12.190;2022-10-22T01:46:18;27.13;;;17.52;;
23676;SDS011;31493;49.058;12.190;2022-10-22T01:48:50;24.65;;;16.67;;
23676;SDS011;31493;49.058;12.190;2022-10-22T01:51:30;26.73;;;17.33;;
23676;SDS011;31493;49.058;12.190;2022-10-22T01:54:13;24.58;;;16.42;;
23676;SDS011;31493;49.058;12.190;2022-10-22T01:56:51;23.20;;;15.70;;
23676;SDS011;31493;49.058;12.190;2022-10-22T01:59:29;24.58;;;15.88;;
23676;SDS011;31493;49.058;12.190;2022-10-22T02:02:07;24.85;;;15.90;;
23676;SDS011;31493;49.058;12.190;2022-10-22T02:04:43;24.17;;;16.15;;
23676;SDS011;31493;49.058;12.190;2022-10-22T02:07:16;26.02;;;16.42;;
23676;SDS011;31493;49.058;12.190;2022-10-22T02:09:47;22.05;;;15.63;;
23676;SDS011;31493;49.058;12.190;2022-10-22T02:14:45;23.52;;;15.30;;
23676;SDS011;31493;49.058;12.190;2022-10-22T02:17:17;25.00;;;15.88;;
23676;SDS011;31493;49.058;12.190;2022-10-22T02:19:49;22.42;;;15.93;;
23676;SDS011;31493;49.058;12.190;2022-10-22T02:22:20;26.45;;;17.13;;
23676;SDS011;31493;49.058;12.190;2022-10-22T02:24:47;25.80;;;18.25;;
23676;SDS011;31493;49.058;12.190;2022-10-22T02:27:17;26.95;;;17.35;;
23676;SDS011;31493;49.058;12.190;2022-10-22T02:29:51;25.42;;;16.42;;
23676;SDS011;31493;49.058;12.190;2022-10-22T02:32:25;23.15;;;16.35;;
23676;SDS011;31493;49.058;12.190;2022-10-22T02:34:56;27.58;;;15.40;;
23676;SDS011;31493;49.058;12.190;2022-10-22T02:37:24;24.77;;;14.63;;
23676;SDS011;31493;49.058;12.190;2022-10-22T02:39:53;27.55;;;14.77;;
23676;SDS011;31493;49.058;12.190;2022-10-22T02:42:21;21.73;;;14.75;;
23676;SDS011;31493;49.058;12.190;2022-10-22T02:44:51;28.33;;;15.25;;
23676;SDS011;31493;49.058;12.190;2022-10-22T02:47:18;29.05;;;16.58;;
23676;SDS011;31493;49.058;12.190;2022-10-22T02:49:45;30.73;;;18.42;;
23676;SDS011;31493;49.058;12.190;2022-10-22T02:52:12;29.50;;;18.27;;
23676;SDS011;31493;49.058;12.190;2022-10-22T02:54:39;33.95;;;19.13;;
23676;SDS011;31493;49.058;12.190;2022-10-22T02:57:06;23.40;;;18.20;;
23676;SDS011;31493;49.058;12.190;2022-10-22T02:59:33;27.20;;;19.17;;
23676;SDS011;31493;49.058;12.190;2022-10-22T03:02:01;32.35;;;20.80;;
23676;SDS011;31493;49.058;12.190;2022-10-22T03:04:29;34.25;;;21.17;;
23676;SDS011;31493;49.058;12.190;2022-10-22T03:06:55;34.08;;;20.88;;
23676;SDS011;31493;49.058;12.190;2022-10-22T03:09:23;29.15;;;19.38;;
23676;SDS011;31493;49.058;12.190;2022-10-22T03:11:50;23.05;;;18.88;;
23676;SDS011;31493;49.058;12.190;2022-10-22T03:14:18;33.28;;;19.38;;
23676;SDS011;31493;49.058;12.190;2022-10-22T03:16:45;43.50;;;19.40;;
23676;SDS011;31493;49.058;12.190;2022-10-22T03:19:13;33.35;;;21.60;;
23676;SDS011;31493;49.058;12.190;2022-10-22T03:21:41;33.88;;;21.50;;
23676;SDS011;31493;49.058;12.190;2022-10-22T03:24:12;31.60;;;22.70;;
23676;SDS011;31493;49.058;12.190;2022-10-22T03:26:42;36.08;;;21.90;;
23676;SDS011;31493;49.058;12.190;2022-10-22T03:29:10;33.10;;;22.35;;
23676;SDS011;31493;49.058;12.190;2022-10-22T03:31:40;35.45;;;23.90;;
23676;SDS011;31493;49.058;12.190;2022-10-22T03:34:07;37.58;;;22.20;;
23676;SDS011;31493;49.058;12.190;2022-10-22T03:36:37;40.35;;;22.88;;
23676;SDS011;31493;49.058;12.190;2022-10-22T03:39:06;37.97;;;23.40;;
23676;SDS011;31493;49.058;12.190;2022-10-22T03:41:33;28.77;;;20.70;;
23676;SDS011;31493;49.058;12.190;2022-10-22T03:44:01;35.97;;;21.95;;
23676;SDS011;31493;49.058;12.190;2022-10-22T03:46:29;108.82;;;24.83;;
23676;SDS011;31493;49.058;12.190;2022-10-22T03:48:57;36.58;;;22.48;;
23676;SDS011;31493;49.058;12.190;2022-10-22T03:51:25;30.13;;;21.90;;
23676;SDS011;31493;49.058;12.190;2022-10-22T03:53:53;35.22;;;24.67;;
23676;SDS011;31493;49.058;12.190;2022-10-22T03:56:20;30.15;;;22.20;;
23676;SDS011;31493;49.058;12.190;2022-10-22T03:58:48;32.83;;;22.38;;
23676;SDS011;31493;49.058;12.190;2022-10-22T04:01:15;34.53;;;24.30;;
23676;SDS011;31493;49.058;12.190;2022-10-22T04:03:42;34.35;;;23.17;;
23676;SDS011;31493;49.058;12.190;2022-10-22T04:06:10;31.58;;;23.52;;
23676;SDS011;31493;49.058;12.190;2022-10-22T04:08:39;37.35;;;23.55;;
23676;SDS011;31493;49.058;12.190;2022-10-22T04:11:09;36.40;;;23.13;;
23676;SDS011;31493;49.058;12.190;2022-10-22T04:13:37;42.50;;;24.63;;
23676;SDS011;31493;49.058;12.190;2022-10-22T04:16:05;40.33;;;26.58;;
23676;SDS011;31493;49.058;12.190;2022-10-22T04:18:33;40.35;;;26.65;;
23676;SDS011;31493;49.058;12.190;2022-10-22T04:21:00;42.60;;;26.17;;
23676;SDS011;31493;49.058;12.190;2022-10-22T04:23:27;39.10;;;25.15;;
23676;SDS011;31493;49.058;12.190;2022-10-22T04:25:56;50.83;;;28.27;;
23676;SDS011;31493;49.058;12.190;2022-10-22T04:28:25;43.65;;;26.90;;
23676;SDS011;31493;49.058;12.190;2022-10-22T04:30:52;49.15;;;29.30;;
23676;SDS011;31493;49.058;12.190;2022-10-22T04:33:19;38.78;;;26.35;;
23676;SDS011;31493;49.058;12.190;2022-10-22T04:35:46;31.95;;;23.08;;
23676;SDS011;31493;49.058;12.190;2022-10-22T04:38:13;34.58;;;22.00;;
23676;SDS011;31493;49.058;12.190;2022-10-22T04:40:41;35.42;;;23.10;;
23676;SDS011;31493;49.058;12.190;2022-10-22T04:43:08;36.75;;;23.52;;
23676;SDS011;31493;49.058;12.190;2022-10-22T04:45:37;42.80;;;23.83;;
23676;SDS011;31493;49.058;12.190;2022-10-22T04:48:04;48.67;;;24.52;;
23676;SDS011;31493;49.058;12.190;2022-10-22T04:50:31;95.32;;;29.13;;
23676;SDS011;31493;49.058;12.190;2022-10-22T04:52:58;89.75;;;22.80;;
23676;SDS011;31493;49.058;12.190;2022-10-22T04:55:25;85.22;;;24.08;;
23676;SDS011;31493;49.058;12.190;2022-10-22T04:57:52;52.42;;;26.65;;
23676;SDS011;31493;49.058;12.190;2022-10-22T05:00:19;57.38;;;25.15;;
23676;SDS011;31493;49.058;12.190;2022-10-22T05:02:49;46.90;;;24.00;;
23676;SDS011;31493;49.058;12.190;2022-10-22T05:05:16;41.83;;;22.05;;
23676;SDS011;31493;49.058;12.190;2022-10-22T05:07:43;46.90;;;22.50;;
23676;SDS011;31493;49.058;12.190;2022-10-22T05:10:11;47.47;;;22.45;;
23676;SDS011;31493;49.058;12.190;2022-10-22T05:12:38;48.17;;;21.65;;
23676;SDS011;31493;49.058;12.190;2022-10-22T05:15:05;46.83;;;22.10;;
23676;SDS011;31493;49.058;12.190;2022-10-22T05:17:34;64.15;;;22.95;;
23676;SDS011;31493;49.058;12.190;2022-10-22T05:20:03;72.37;;;24.10;;
23676;SDS011;31493;49.058;12.190;2022-10-22T05:22:32;131.68;;;24.25;;
23676;SDS011;31493;49.058;12.190;2022-10-22T05:24:59;164.00;;;23.60;;
23676;SDS011;31493;49.058;12.190;2022-10-22T05:27:26;207.32;;;25.35;;
23676;SDS011;31493;49.058;12.190;2022-10-22T05:29:53;294.88;;;29.70;;
23676;SDS011;31493;49.058;12.190;2022-10-22T05:32:20;246.50;;;26.67;;
23676;SDS011;31493;49.058;12.190;2022-10-22T05:34:47;255.57;;;26.92;;
23676;SDS011;31493;49.058;12.190;2022-10-22T05:37:15;163.98;;;23.88;;
23676;SDS011;31493;49.058;12.190;2022-10-22T05:39:42;152.80;;;26.13;;
23676;SDS011;31493;49.058;12.190;2022-10-22T05:42:09;83.78;;;21.73;;
23676;SDS011;31493;49.058;12.190;2022-10-22T05:44:36;86.85;;;23.20;;
23676;SDS011;31493;49.058;12.190;2022-10-22T05:47:05;67.35;;;23.17;;
23676;SDS011;31493;49.058;12.190;2022-10-22T05:49:32;61.08;;;23.27;;
23676;SDS011;31493;49.058;12.190;2022-10-22T05:51:59;54.25;;;23.10;;
23676;SDS011;31493;49.058;12.190;2022-10-22T05:54:27;51.92;;;24.05;;
23676;SDS011;31493;49.058;12.190;2022-10-22T05:56:54;47.63;;;24.73;;
23676;SDS011;31493;49.058;12.190;2022-10-22T05:59:21;43.80;;;23.00;;
23676;SDS011;31493;49.058;12.190;2022-10-22T06:01:48;39.05;;;21.55;;
23676;SDS011;31493;49.058;12.190;2022-10-22T06:04:16;45.17;;;23.15;;
23676;SDS011;31493;49.058;12.190;2022-10-22T06:06:43;45.95;;;23.45;;
23676;SDS011;31493;49.058;12.190;2022-10-22T06:09:12;42.15;;;23.70;;
23676;SDS011;31493;49.058;12.190;2022-10-22T06:11:43;34.42;;;22.13;;
23676;SDS011;31493;49.058;12.190;2022-10-22T06:16:38;47.88;;;23.80;;
23676;SDS011;31493;49.058;12.190;2022-10-22T06:19:10;58.15;;;25.80;;
23676;SDS011;31493;49.058;12.190;2022-10-22T06:21:37;30.50;;;19.50;;
23676;SDS011;31493;49.058;12.190;2022-10-22T06:24:05;29.48;;;19.88;;
23676;SDS011;31493;49.058;12.190;2022-10-22T06:26:32;34.15;;;21.20;;
23676;SDS011;31493;49.058;12.190;2022-10-22T06:29:01;36.17;;;22.08;;
23676;SDS011;31493;49.058;12.190;2022-10-22T06:31:28;65.28;;;34.58;;
23676;SDS011;31493;49.058;12.190;2022-10-22T06:34:01;35.05;;;24.05;;
23676;SDS011;31493;49.058;12.190;2022-10-22T06:36:28;28.08;;;19.05;;
23676;SDS011;31493;49.058;12.190;2022-10-22T06:38:55;32.30;;;19.63;;
23676;SDS011;31493;49.058;12.190;2022-10-22T06:41:23;27.77;;;18.95;;
23676;SDS011;31493;49.058;12.190;2022-10-22T06:43:52;76.90;;;20.40;;
23676;SDS011;31493;49.058;12.190;2022-10-22T06:46:21;26.90;;;16.85;;
23676;SDS011;31493;49.058;12.190;2022-10-22T06:48:50;27.48;;;17.55;;
23676;SDS011;31493;49.058;12.190;2022-10-22T06:51:18;25.20;;;17.13;;
23676;SDS011;31493;49.058;12.190;2022-10-22T06:53:47;24.58;;;16.15;;
23676;SDS011;31493;49.058;12.190;2022-10-22T06:56:15;23.80;;;15.35;;
23676;SDS011;31493;49.058;12.190;2022-10-22T06:58:45;25.75;;;16.80;;
23676;SDS011;31493;49.058;12.190;2022-10-22T07:01:13;35.70;;;19.15;;
23676;SDS011;31493;49.058;12.190;2022-10-22T07:03:48;27.40;;;16.92;;
23676;SDS011;31493;49.058;12.190;2022-10-22T07:06:16;24.63;;;17.45;;
23676;SDS011;31493;49.058;12.190;2022-10-22T07:08:44;31.95;;;19.00;;
23676;SDS011;31493;49.058;12.190;2022-10-22T07:11:12;27.77;;;18.20;;
23676;SDS011;31493;49.058;12.190;2022-10-22T07:16:07;35.40;;;20.92;;
23676;SDS011;31493;49.058;12.190;2022-10-22T07:18:36;26.33;;;18.25;;
23676;SDS011;31493;49.058;12.190;2022-10-22T07:21:06;24.08;;;17.98;;
23676;SDS011;31493;49.058;12.190;2022-10-22T07:23:34;24.50;;;18.42;;
23676;SDS011;31493;49.058;12.190;2022-10-22T07:26:01;28.88;;;18.33;;
23676;SDS011;31493;49.058;12.190;2022-10-22T07:28:28;31.90;;;19.73;;
23676;SDS011;31493;49.058;12.190;2022-10-22T07:30:57;41.38;;;23.40;;
23676;SDS011;31493;49.058;12.190;2022-10-22T07:33:24;30.38;;;20.25;;
23676;SDS011;31493;49.058;12.190;2022-10-22T07:35:55;30.73;;;20.42;;
23676;SDS011;31493;49.058;12.190;2022-10-22T07:38:25;35.00;;;21.15;;
23676;SDS011;31493;49.058;12.190;2022-10-22T07:40:52;25.30;;;17.88;;
23676;SDS011;31493;49.058;12.190;2022-10-22T07:43:20;28.02;;;18.30;;
23676;SDS011;31493;49.058;12.190;2022-10-22T07:45:47;24.70;;;17.13;;
23676;SDS011;31493;49.058;12.190;2022-10-22T07:48:14;24.50;;;17.55;;
23676;SDS011;31493;49.058;12.190;2022-10-22T07:50:42;20.23;;;15.65;;
23676;SDS011;31493;49.058;12.190;2022-10-22T07:53:09;18.17;;;14.65;;
23676;SDS011;31493;49.058;12.190;2022-10-22T07:55:37;18.85;;;12.88;;
23676;SDS011;31493;49.058;12.190;2022-10-22T07:58:04;15.35;;;12.20;;
23676;SDS011;31493;49.058;12.190;2022-10-22T08:00:31;17.75;;;12.27;;
23676;SDS011;31493;49.058;12.190;2022-10-22T08:02:58;15.50;;;11.10;;
23676;SDS011;31493;49.058;12.190;2022-10-22T08:05:25;16.27;;;10.93;;
23676;SDS011;31493;49.058;12.190;2022-10-22T08:07:52;15.65;;;11.65;;
23676;SDS011;31493;49.058;12.190;2022-10-22T08:10:19;19.85;;;10.40;;
23676;SDS011;31493;49.058;12.190;2022-10-22T08:12:48;14.30;;;9.82;;
23676;SDS011;31493;49.058;12.190;2022-10-22T08:15:15;20.58;;;10.70;;
23676;SDS011;31493;49.058;12.190;2022-10-22T08:17:42;17.00;;;10.82;;
23676;SDS011;31493;49.058;12.190;2022-10-22T08:20:09;14.90;;;9.95;;
23676;SDS011;31493;49.058;12.190;2022-10-22T08:22:37;16.52;;;10.35;;
23676;SDS011;31493;49.058;12.190;2022-10-22T08:25:04;13.07;;;10.57;;
23676;SDS011;31493;49.058;12.190;2022-10-22T08:27:32;14.55;;;11.13;;
23676;SDS011;31493;49.058;12.190;2022-10-22T08:30:00;26.20;;;12.18;;
23676;SDS011;31493;49.058;12.190;2022-10-22T08:32:27;16.45;;;13.13;;
23676;SDS011;31493;49.058;12.190;2022-10-22T08:34:55;12.50;;;11.15;;
23676;SDS011;31493;49.058;12.190;2022-10-22T08:37:22;12.35;;;10.27;;
23676;SDS011;31493;49.058;12.190;2022-10-22T08:39:50;12.20;;;9.25;;
23676;SDS011;31493;49.058;12.190;2022-10-22T08:42:24;15.05;;;10.65;;
23676;SDS011;31493;49.058;12.190;2022-10-22T08:45:09;12.07;;;10.15;;
23676;SDS011;31493;49.058;12.190;2022-10-22T08:47:51;10.23;;;9.10;;
23676;SDS011;31493;49.058;12.190;2022-10-22T08:50:29;12.55;;;9.75;;
23676;SDS011;31493;49.058;12.190;2022-10-22T08:53:00;10.48;;;9.38;;
23676;SDS011;31493;49.058;12.190;2022-10-22T08:55:30;13.70;;;9.95;;
23676;SDS011;31493;49.058;12.190;2022-10-22T08:58:00;17.33;;;9.95;;
23676;SDS011;31493;49.058;12.190;2022-10-22T09:00:35;15.50;;;9.68;;
23676;SDS011;31493;49.058;12.190;2022-10-22T09:03:14;11.88;;;9.10;;
23676;SDS011;31493;49.058;12.190;2022-10-22T09:05:58;10.82;;;8.98;;
23676;SDS011;31493;49.058;12.190;2022-10-22T09:08:31;11.90;;;8.85;;
23676;SDS011;31493;49.058;12.190;2022-10-22T09:14:21;13.32;;;8.80;;
23676;SDS011;31493;49.058;12.190;2022-10-22T09:17:04;15.38;;;9.20;;
23676;SDS011;31493;49.058;12.190;2022-10-22T09:22:15;13.20;;;8.68;;
23676;SDS011;31493;49.058;12.190;2022-10-22T09:24:51;11.90;;;8.73;;
23676;SDS011;31493;49.058;12.190;2022-10-22T09:27:25;19.20;;;8.95;;
23676;SDS011;31493;49.058;12.190;2022-10-22T09:29:54;11.57;;;8.07;;
23676;SDS011;31493;49.058;12.190;2022-10-22T09:32:22;9.55;;;7.60;;
23676;SDS011;31493;49.058;12.190;2022-10-22T09:34:53;10.80;;;7.70;;
23676;SDS011;31493;49.058;12.190;2022-10-22T09:37:24;8.05;;;6.28;;
23676;SDS011;31493;49.058;12.190;2022-10-22T09:39:53;8.43;;;6.18;;
23676;SDS011;31493;49.058;12.190;2022-10-22T09:42:21;9.55;;;5.32;;
23676;SDS011;31493;49.058;12.190;2022-10-22T09:44:50;7.47;;;5.72;;
23676;SDS011;31493;49.058;12.190;2022-10-22T09:47:29;5.70;;;4.85;;
23676;SDS011;31493;49.058;12.190;2022-10-22T09:50:03;7.47;;;5.57;;
23676;SDS011;31493;49.058;12.190;2022-10-22T09:52:33;7.57;;;4.88;;
23676;SDS011;31493;49.058;12.190;2022-10-22T09:55:00;7.82;;;4.70;;
23676;SDS011;31493;49.058;12.190;2022-10-22T09:57:32;5.95;;;4.30;;
23676;SDS011;31493;49.058;12.190;2022-10-22T10:00:00;10.73;;;4.20;;
23676;SDS011;31493;49.058;12.190;2022-10-22T10:02:29;8.57;;;4.00;;
23676;SDS011;31493;49.058;12.190;2022-10-22T10:04:56;7.13;;;4.75;;
23676;SDS011;31493;49.058;12.190;2022-10-22T10:07:24;7.32;;;4.28;;
23676;SDS011;31493;49.058;12.190;2022-10-22T10:09:52;7.18;;;4.20;;
23676;SDS011;31493;49.058;12.190;2022-10-22T10:12:32;7.97;;;4.20;;
23676;SDS011;31493;49.058;12.190;2022-10-22T10:15:10;6.75;;;4.13;;
23676;SDS011;31493;49.058;12.190;2022-10-22T10:17:48;7.68;;;4.10;;
23676;SDS011;31493;49.058;12.190;2022-10-22T10:20:23;7.15;;;3.40;;
23676;SDS011;31493;49.058;12.190;2022-10-22T10:23:01;5.68;;;3.35;;
23676;SDS011;31493;49.058;12.190;2022-10-22T10:25:36;5.40;;;3.00;;
23676;SDS011;31493;49.058;12.190;2022-10-22T10:28:22;6.85;;;3.10;;
23676;SDS011;31493;49.058;12.190;2022-10-22T10:31:02;8.02;;;3.00;;
23676;SDS011;31493;49.058;12.190;2022-10-22T10:33:41;4.63;;;2.60;;
23676;SDS011;31493;49.058;12.190;2022-10-22T10:36:18;3.45;;;2.22;;
23676;SDS011;31493;49.058;12.190;2022-10-22T10:38:55;3.03;;;2.20;;
23676;SDS011;31493;49.058;12.190;2022-10-22T10:41:28;5.03;;;2.10;;
23676;SDS011;31493;49.058;12.190;2022-10-22T10:44:14;4.75;;;2.13;;
23676;SDS011;31493;49.058;12.190;2022-10-22T10:46:55;5.57;;;2.60;;
23676;SDS011;31493;49.058;12.190;2022-10-22T10:49:32;5.18;;;2.20;;
23676;SDS011;31493;49.058;12.190;2022-10-22T10:52:02;4.07;;;2.30;;
23676;SDS011;31493;49.058;12.190;2022-10-22T10:54:40;5.45;;;2.30;;
23676;SDS011;31493;49.058;12.190;2022-10-22T10:57:16;4.75;;;2.13;;
23676;SDS011;31493;49.058;12.190;2022-10-22T10:59:53;3.35;;;2.00;;
23676;SDS011;31493;49.058;12.190;2022-10-22T11:02:41;2.45;;;1.70;;
23676;SDS011;31493;49.058;12.190;2022-10-22T11:05:27;6.93;;;2.22;;
23676;SDS011;31493;49.058;12.190;2022-10-22T11:07:58;4.35;;;1.70;;
23676;SDS011;31493;49.058;12.190;2022-10-22T11:10:29;2.58;;;1.48;;
23676;SDS011;31493;49.058;12.190;2022-10-22T11:13:02;2.92;;;1.75;;
23676;SDS011;31493;49.058;12.190;2022-10-22T11:15:35;3.80;;;1.70;;
23676;SDS011;31493;49.058;12.190;2022-10-22T11:18:07;5.28;;;1.45;;
23676;SDS011;31493;49.058;12.190;2022-10-22T11:20:44;2.83;;;1.55;;
23676;SDS011;31493;49.058;12.190;2022-10-22T11:23:17;2.53;;;1.60;;
23676;SDS011;31493;49.058;12.190;2022-10-22T11:25:51;7.60;;;1.40;;
23676;SDS011;31493;49.058;12.190;2022-10-22T11:28:19;2.65;;;1.50;;
23676;SDS011;31493;49.058;12.190;2022-10-22T11:30:52;3.60;;;1.70;;
23676;SDS011;31493;49.058;12.190;2022-10-22T11:33:23;5.95;;;1.67;;
23676;SDS011;31493;49.058;12.190;2022-10-22T11:36:00;9.23;;;1.75;;
23676;SDS011;31493;49.058;12.190;2022-10-22T11:38:29;3.40;;;1.40;;
23676;SDS011;31493;49.058;12.190;2022-10-22T11:40:58;5.45;;;1.70;;
23676;SDS011;31493;49.058;12.190;2022-10-22T11:43:28;3.20;;;1.38;;
23676;SDS011;31493;49.058;12.190;2022-10-22T11:46:01;5.70;;;1.60;;
23676;SDS011;31493;49.058;12.190;2022-10-22T11:48:35;3.03;;;1.58;;
23676;SDS011;31493;49.058;12.190;2022-10-22T11:51:27;4.07;;;1.50;;
23676;SDS011;31493;49.058;12.190;2022-10-22T11:54:25;2.83;;;1.40;;
23676;SDS011;31493;49.058;12.190;2022-10-22T11:56:56;5.20;;;1.40;;
23676;SDS011;31493;49.058;12.190;2022-10-22T11:59:39;3.05;;;1.92;;
23676;SDS011;31493;49.058;12.190;2022-10-22T12:02:24;2.72;;;1.83;;
23676;SDS011;31493;49.058;12.190;2022-10-22T12:11:12;2.53;;;1.48;;
23676;SDS011;31493;49.058;12.190;2022-10-22T12:14:01;4.43;;;1.50;;
23676;SDS011;31493;49.058;12.190;2022-10-22T12:16:39;5.50;;;1.40;;
23676;SDS011;31493;49.058;12.190;2022-10-22T12:19:14;2.13;;;1.20;;
23676;SDS011;31493;49.058;12.190;2022-10-22T12:21:44;2.20;;;0.88;;
23676;SDS011;31493;49.058;12.190;2022-10-22T12:24:16;3.22;;;1.10;;
23676;SDS011;31493;49.058;12.190;2022-10-22T12:26:45;5.05;;;1.00;;
23676;SDS011;31493;49.058;12.190;2022-10-22T12:31:43;3.63;;;0.90;;
23676;SDS011;31493;49.058;12.190;2022-10-22T12:34:12;6.35;;;0.90;;
23676;SDS011;31493;49.058;12.190;2022-10-22T12:36:40;2.70;;;0.93;;
23676;SDS011;31493;49.058;12.190;2022-10-22T12:39:12;2.95;;;1.10;;
23676;SDS011;31493;49.058;12.190;2022-10-22T12:41:42;4.05;;;1.17;;
23676;SDS011;31493;49.058;12.190;2022-10-22T12:44:10;4.70;;;1.23;;
23676;SDS011;31493;49.058;12.190;2022-10-22T12:46:39;6.28;;;0.90;;
23676;SDS011;31493;49.058;12.190;2022-10-22T12:49:10;1.73;;;0.90;;
23676;SDS011;31493;49.058;12.190;2022-10-22T12:51:42;2.38;;;1.05;;
23676;SDS011;31493;49.058;12.190;2022-10-22T12:54:13;2.58;;;0.88;;
23676;SDS011;31493;49.058;12.190;2022-10-22T12:56:48;3.53;;;0.80;;
23676;SDS011;31493;49.058;12.190;2022-10-22T12:59:18;2.17;;;0.82;;
23676;SDS011;31493;49.058;12.190;2022-10-22T13:01:48;2.53;;;0.98;;
23676;SDS011;31493;49.058;12.190;2022-10-22T13:04:21;6.88;;;0.90;;
23676;SDS011;31493;49.058;12.190;2022-10-22T13:07:04;2.03;;;0.80;;
23676;SDS011;31493;49.058;12.190;2022-10-22T13:09:43;3.70;;;0.90;;
23676;SDS011;31493;49.058;12.190;2022-10-22T13:12:15;4.47;;;1.17;;
23676;SDS011;31493;49.058;12.190;2022-10-22T13:14:50;3.85;;;0.77;;
23676;SDS011;31493;49.058;12.190;2022-10-22T13:17:18;5.55;;;0.82;;
23676;SDS011;31493;49.058;12.190;2022-10-22T13:19:49;4.35;;;1.42;;
23676;SDS011;31493;49.058;12.190;2022-10-22T13:22:30;2.15;;;1.17;;
23676;SDS011;31493;49.058;12.190;2022-10-22T13:25:03;4.43;;;0.80;;
23676;SDS011;31493;49.058;12.190;2022-10-22T13:27:46;2.97;;;0.90;;
23676;SDS011;31493;49.058;12.190;2022-10-22T13:30:19;2.35;;;1.02;;
23676;SDS011;31493;49.058;12.190;2022-10-22T13:32:48;4.13;;;0.90;;
23676;SDS011;31493;49.058;12.190;2022-10-22T13:35:19;4.07;;;1.10;;
23676;SDS011;31493;49.058;12.190;2022-10-22T13:37:48;1.50;;;0.75;;
23676;SDS011;31493;49.058;12.190;2022-10-22T13:40:17;7.55;;;0.90;;
23676;SDS011;31493;49.058;12.190;2022-10-22T13:42:46;4.68;;;1.00;;
23676;SDS011;31493;49.058;12.190;2022-10-22T13:45:13;6.15;;;1.38;;
23676;SDS011;31493;49.058;12.190;2022-10-22T13:47:41;4.85;;;0.80;;
23676;SDS011;31493;49.058;12.190;2022-10-22T13:50:12;5.72;;;0.90;;
23676;SDS011;31493;49.058;12.190;2022-10-22T13:52:42;5.38;;;1.33;;
23676;SDS011;31493;49.058;12.190;2022-10-22T13:55:14;4.60;;;1.30;;
23676;SDS011;31493;49.058;12.190;2022-10-22T13:57:43;2.47;;;1.08;;
23676;SDS011;31493;49.058;12.190;2022-10-22T14:00:13;5.95;;;1.25;;
23676;SDS011;31493;49.058;12.190;2022-10-22T14:02:42;3.03;;;1.30;;
23676;SDS011;31493;49.058;12.190;2022-10-22T14:05:10;5.38;;;1.52;;
23676;SDS011;31493;49.058;12.190;2022-10-22T14:07:37;3.17;;;1.30;;
23676;SDS011;31493;49.058;12.190;2022-10-22T14:10:13;3.55;;;1.30;;
23676;SDS011;31493;49.058;12.190;2022-10-22T14:12:43;5.75;;;1.33;;
23676;SDS011;31493;49.058;12.190;2022-10-22T14:15:11;6.78;;;1.40;;
23676;SDS011;31493;49.058;12.190;2022-10-22T14:17:41;2.75;;;1.25;;
23676;SDS011;31493;49.058;12.190;2022-10-22T14:20:15;3.83;;;1.30;;
23676;SDS011;31493;49.058;12.190;2022-10-22T14:22:44;2.97;;;1.05;;
23676;SDS011;31493;49.058;12.190;2022-10-22T14:25:13;8.88;;;1.13;;
23676;SDS011;31493;49.058;12.190;2022-10-22T14:27:41;2.90;;;1.02;;
23676;SDS011;31493;49.058;12.190;2022-10-22T14:30:13;6.38;;;1.30;;
23676;SDS011;31493;49.058;12.190;2022-10-22T14:32:41;9.85;;;1.20;;
23676;SDS011;31493;49.058;12.190;2022-10-22T14:35:09;4.88;;;0.90;;
23676;SDS011;31493;49.058;12.190;2022-10-22T14:37:38;3.28;;;1.05;;
23676;SDS011;31493;49.058;12.190;2022-10-22T14:40:05;3.67;;;0.98;;
23676;SDS011;31493;49.058;12.190;2022-10-22T14:42:33;5.00;;;1.10;;
23676;SDS011;31493;49.058;12.190;2022-10-22T14:45:05;4.60;;;0.80;;
23676;SDS011;31493;49.058;12.190;2022-10-22T14:47:34;1.40;;;0.90;;
23676;SDS011;31493;49.058;12.190;2022-10-22T14:50:01;2.03;;;0.90;;
23676;SDS011;31493;49.058;12.190;2022-10-22T14:52:28;4.45;;;0.90;;
23676;SDS011;31493;49.058;12.190;2022-10-22T14:54:55;4.95;;;1.30;;
23676;SDS011;31493;49.058;12.190;2022-10-22T14:57:22;6.80;;;1.10;;
23676;SDS011;31493;49.058;12.190;2022-10-22T14:59:49;2.50;;;0.88;;